Time;durP1;ratioP1;P1;durP2;ratioP2;P2;SDS_P1;SDS_P2;PMS_P1;PMS_P2;Temp;Humidity;BMP_temperature;BMP_pressure;BME280_temperature;BME280_humidity;BME280_pressure;Samples;Min_cycle;Max_cycle;Signal;HPM_P1;HPM_P2
2024/01/15 00:00:18;;;;;;;244.33;103.20;;;;;;;-143.21;72.45;73688.72;5043685;28;20267;-95
2024/01/15 00:02:47;;;;;;;226.90;97.27;;;;;;;-143.21;72.21;73690.69;5050520;28;20266;-94
2024/01/15 00:05:17;;;;;;;240.20;102.17;;;;;;;-143.21;72.46;73690.69;5048724;28;20213;-94
2024/01/15 00:07:45;;;;;;;231.47;98.77;;;;;;;-143.21;72.39;73684.75;5039588;28;20191;-95
2024/01/15 00:10:16;;;;;;;242.53;102.47;;;;;;;-143.21;72.52;73690.69;5036927;28;20211;-94
2024/01/15 00:12:47;;;;;;;232.20;97.73;;;;;;;-143.21;72.72;73688.72;5036035;28;20245;-94
2024/01/15 00:15:14;;;;;;;232.37;98.13;;;;;;;-143.21;72.64;73688.72;5041082;28;20726;-94
2024/01/15 00:17:43;;;;;;;244.60;98.70;;;;;;;-143.21;72.13;73694.66;5028430;28;20229;-95
2024/01/15 00:20:11;;;;;;;234.77;98.97;;;;;;;-143.21;71.99;73690.69;5034330;28;20281;-95
2024/01/15 00:22:38;;;;;;;233.27;98.67;;;;;;;-143.21;72.19;73694.66;5033000;28;20199;-95
2024/01/15 00:25:07;;;;;;;223.67;97.27;;;;;;;-143.21;72.40;73716.50;5033655;28;20239;-94
2024/01/15 00:27:34;;;;;;;228.83;98.40;;;;;;;-143.21;72.13;73704.59;5033389;28;20213;-94
2024/01/15 00:30:11;;;;;;;230.43;97.97;;;;;;;-143.21;72.03;73720.47;5033989;28;20194;-95
2024/01/15 00:32:42;;;;;;;219.53;96.47;;;;;;;-143.21;72.60;73718.47;5035854;28;20689;-95
2024/01/15 00:35:13;;;;;;;224.97;97.20;;;;;;;-143.21;72.93;73710.53;5026655;28;20657;-95
2024/01/15 00:37:40;;;;;;;214.60;98.07;;;;;;;-143.21;72.96;73708.56;5038750;28;20719;-94
2024/01/15 00:40:12;;;;;;;228.87;99.83;;;;;;;-143.21;72.81;73708.56;5046001;28;20195;-94
2024/01/15 00:42:39;;;;;;;226.60;99.03;;;;;;;-143.21;72.86;73702.59;5038614;28;20199;-93
2024/01/15 00:45:07;;;;;;;231.50;98.53;;;;;;;-143.21;72.94;73700.63;5038026;28;20211;-95
2024/01/15 00:47:35;;;;;;;233.90;100.07;;;;;;;-143.21;72.81;73702.59;5048011;28;20709;-94
2024/01/15 00:50:04;;;;;;;249.90;102.40;;;;;;;-143.21;72.55;73704.59;5050225;28;20230;-94
2024/01/15 00:52:38;;;;;;;220.43;92.60;;;;;;;-143.21;72.12;73720.47;5033132;28;20199;-94
2024/01/15 00:55:06;;;;;;;230.90;94.97;;;;;;;-143.21;72.88;73732.38;5025506;28;20660;-94
2024/01/15 00:57:35;;;;;;;213.33;89.50;;;;;;;-143.21;72.76;73718.47;5027657;28;20693;-95
2024/01/15 01:00:02;;;;;;;225.27;93.77;;;;;;;-143.21;73.19;73730.38;5024219;28;20216;-94
2024/01/15 01:02:32;;;;;;;210.20;89.57;;;;;;;-143.21;73.12;73718.47;5034232;28;20194;-94
2024/01/15 01:04:59;;;;;;;206.97;89.37;;;;;;;-143.21;72.79;73714.50;5031517;28;20195;-94
2024/01/15 01:07:26;;;;;;;216.10;90.60;;;;;;;-143.21;72.72;73716.50;5032416;28;20213;-94
2024/01/15 01:09:53;;;;;;;198.43;82.73;;;;;;;-143.21;72.92;73724.44;5024296;28;20594;-94
2024/01/15 01:12:20;;;;;;;213.60;86.60;;;;;;;-143.21;73.47;73720.47;5034546;28;20199;-95
2024/01/15 01:14:52;;;;;;;201.17;82.20;;;;;;;-143.21;73.10;73712.53;5019670;28;20231;-94
2024/01/15 01:17:19;;;;;;;192.03;83.67;;;;;;;-143.21;73.21;73714.50;5040784;28;20230;-95
2024/01/15 01:19:46;;;;;;;201.07;83.93;;;;;;;-143.21;72.40;73712.53;5032926;28;20357;-95
2024/01/15 01:22:13;;;;;;;180.40;74.17;;;;;;;-143.21;72.54;73720.47;5036036;28;20205;-94
2024/01/15 01:24:40;;;;;;;180.77;72.97;;;;;;;-143.21;72.72;73720.47;5048288;28;20199;-95
2024/01/15 01:27:08;;;;;;;153.23;67.97;;;;;;;-143.21;72.57;73710.53;5037439;28;20226;-93
2024/01/15 01:29:35;;;;;;;157.80;69.27;;;;;;;-143.21;72.62;73720.47;5033238;28;20214;-92
2024/01/15 01:32:05;;;;;;;157.73;63.03;;;;;;;-143.21;72.82;73720.47;5043179;28;20198;-93
2024/01/15 01:34:34;;;;;;;146.23;61.57;;;;;;;-143.21;72.97;73716.50;5044610;28;20223;-96
2024/01/15 01:37:01;;;;;;;138.90;58.30;;;;;;;-143.21;73.15;73708.56;5041995;28;20293;-93
2024/01/15 01:39:31;;;;;;;134.37;58.57;;;;;;;-143.21;73.01;73712.53;5029268;28;20273;-94
2024/01/15 01:41:59;;;;;;;131.10;56.00;;;;;;;-143.21;73.28;73716.50;5048900;28;20206;-95
2024/01/15 01:44:27;;;;;;;123.77;54.23;;;;;;;-143.21;73.31;73718.47;5052214;28;20225;-96
2024/01/15 01:46:54;;;;;;;136.97;55.37;;;;;;;-143.21;73.32;73716.50;5035988;28;20206;-94
2024/01/15 01:49:24;;;;;;;130.50;54.17;;;;;;;-143.21;73.02;73714.50;5021401;28;20671;-95
2024/01/15 01:51:52;;;;;;;128.43;53.30;;;;;;;-143.21;73.36;73714.50;5030529;28;20586;-93
2024/01/15 01:54:20;;;;;;;123.13;52.27;;;;;;;-143.21;73.21;73720.47;5036334;28;20274;-94
2024/01/15 01:56:50;;;;;;;121.57;51.77;;;;;;;-143.21;73.12;73712.53;5034172;28;20198;-95
2024/01/15 01:59:19;;;;;;;122.77;51.77;;;;;;;-143.21;73.00;73710.53;5030213;28;20224;-92
2024/01/15 02:01:50;;;;;;;120.13;52.50;;;;;;;-143.21;72.94;73714.50;5023186;28;20215;-94
2024/01/15 02:04:18;;;;;;;123.97;51.70;;;;;;;-143.21;72.78;73712.53;5019454;28;20202;-94
2024/01/15 02:06:46;;;;;;;129.80;52.50;;;;;;;-143.21;72.62;73700.63;5036083;28;20198;-94
2024/01/15 02:09:15;;;;;;;112.83;48.13;;;;;;;-143.21;72.48;73714.50;5039690;28;20288;-95
2024/01/15 02:11:43;;;;;;;108.67;47.50;;;;;;;-143.21;72.44;73714.50;5037363;28;20194;-94
2024/01/15 02:14:11;;;;;;;101.00;43.90;;;;;;;-143.21;72.43;73714.50;5031322;28;20194;-95
2024/01/15 02:16:38;;;;;;;110.10;45.77;;;;;;;-143.21;72.84;73702.59;5047035;28;20223;-95
2024/01/15 02:19:05;;;;;;;112.70;46.80;;;;;;;-143.21;73.15;73706.56;5044276;28;20230;-94
2024/01/15 02:21:32;;;;;;;108.03;47.07;;;;;;;-143.21;73.30;73698.63;5048646;28;20262;-92
2024/01/15 02:24:01;;;;;;;104.37;45.60;;;;;;;-143.21;72.88;73680.78;5045277;28;20607;-96
2024/01/15 02:26:28;;;;;;;104.37;46.27;;;;;;;-143.21;73.36;73674.81;5033231;28;20285;-93
2024/01/15 02:28:56;;;;;;;113.30;47.83;;;;;;;-143.21;72.83;73668.88;5034711;28;20197;-94
2024/01/15 02:31:23;;;;;;;111.70;47.37;;;;;;;-143.21;73.20;73674.81;5036081;28;20194;-94
2024/01/15 02:33:50;;;;;;;113.47;47.97;;;;;;;-143.21;73.23;73682.75;5039982;28;20222;-94
2024/01/15 02:36:19;;;;;;;114.17;47.93;;;;;;;-143.21;73.11;73684.75;5031376;28;20716;-95
2024/01/15 02:38:55;;;;;;;107.03;45.33;;;;;;;-143.21;73.08;73680.78;5037928;28;20229;-95
2024/01/15 02:41:34;;;;;;;100.63;45.13;;;;;;;-143.21;73.14;73680.78;5036215;28;20696;-95
2024/01/15 02:44:21;;;;;;;113.27;44.47;;;;;;;-143.21;73.34;73676.81;5019658;28;20197;-95
2024/01/15 02:46:50;;;;;;;105.90;44.43;;;;;;;-143.21;73.62;73684.75;5039833;28;20207;-95
2024/01/15 02:49:23;;;;;;;103.40;43.27;;;;;;;-143.21;73.67;73690.69;5032978;28;20193;-95
2024/01/15 02:54:43;;;;;;;101.43;44.03;;;;;;;-143.21;73.94;73676.81;5029706;28;20665;-95
2024/01/15 03:00:03;;;;;;;118.23;47.33;;;;;;;-143.21;73.57;73666.88;5038171;28;20202;-96
2024/01/15 03:02:43;;;;;;;106.60;45.50;;;;;;;-143.21;73.28;73668.88;5051068;28;20217;-94
2024/01/15 03:05:18;;;;;;;120.97;51.47;;;;;;;-143.21;73.36;73672.84;5037701;28;20225;-94
2024/01/15 03:07:51;;;;;;;133.67;56.53;;;;;;;-143.21;73.12;73664.91;5019857;28;20266;-94
2024/01/15 03:10:23;;;;;;;134.47;58.70;;;;;;;-143.21;73.26;73668.88;5017947;28;20196;-95
2024/01/15 03:12:52;;;;;;;142.97;62.93;;;;;;;-143.21;73.35;73662.94;5036086;28;20202;-96
2024/01/15 03:15:23;;;;;;;145.63;63.53;;;;;;;-143.21;73.54;73653.00;5045451;28;20233;-96
2024/01/15 03:18:00;;;;;;;144.77;62.87;;;;;;;-143.21;73.15;73645.06;5055404;28;20198;-96
2024/01/15 03:31:50;;;;;;;162.83;63.70;;;;;;;-143.21;73.72;73637.13;5039258;28;20198;-96
2024/01/15 03:34:18;;;;;;;146.70;64.03;;;;;;;-143.21;73.90;73645.06;5037573;28;20219;-96
2024/01/15 03:36:45;;;;;;;150.93;64.07;;;;;;;-143.21;74.09;73647.06;5036827;28;20234;-96
2024/01/15 03:39:13;;;;;;;146.73;62.53;;;;;;;-143.21;74.26;73641.09;5035580;28;20263;-96
2024/01/15 03:41:40;;;;;;;152.53;63.63;;;;;;;-143.21;74.59;73633.16;5037281;28;20203;-96
2024/01/15 03:44:08;;;;;;;149.03;63.97;;;;;;;-143.21;74.42;73625.22;5035976;28;20265;-95
2024/01/15 03:46:35;;;;;;;155.80;64.23;;;;;;;-143.21;74.69;73623.25;5042022;28;20303;-94
2024/01/15 03:49:05;;;;;;;142.90;63.87;;;;;;;-143.21;74.85;73627.22;5033907;28;20210;-93
2024/01/15 03:51:34;;;;;;;161.57;65.90;;;;;;;-143.21;74.57;73613.31;5034936;28;20603;-95
2024/01/15 03:54:01;;;;;;;155.60;67.80;;;;;;;-143.21;74.60;73617.28;5035991;28;20282;-94
2024/01/15 03:56:30;;;;;;;166.80;71.27;;;;;;;-143.21;74.61;73613.31;5034777;28;20290;-95
2024/01/15 03:58:57;;;;;;;158.53;68.97;;;;;;;-143.21;74.15;73613.31;5040360;28;20314;-95
2024/01/15 04:04:09;;;;;;;166.57;69.37;;;;;;;-143.21;73.62;73599.44;5037938;28;20250;-95
2024/01/15 04:06:37;;;;;;;159.87;71.73;;;;;;;-143.21;73.69;73593.50;5048928;28;20298;-94
2024/01/15 04:11:55;;;;;;;177.70;75.60;;;;;;;-143.21;73.15;73595.47;5089449;22;20241;-96
2024/01/15 04:14:26;;;;;;;162.40;73.43;;;;;;;-143.21;73.42;73599.44;5057101;28;20228;-96
2024/01/15 04:16:59;;;;;;;184.57;74.87;;;;;;;-143.21;73.73;73595.47;5071704;28;20189;-96
2024/01/15 04:22:37;;;;;;;177.47;76.63;;;;;;;-143.21;73.18;73599.44;5068750;28;20208;-96
2024/01/15 04:25:09;;;;;;;195.03;83.33;;;;;;;-143.21;73.29;73601.41;5067371;28;20200;-95
2024/01/15 04:27:40;;;;;;;194.07;83.80;;;;;;;-143.21;73.24;73611.34;5075581;28;20194;-96
2024/01/15 04:30:18;;;;;;;215.30;87.77;;;;;;;-143.21;73.39;73619.28;5090894;28;20213;-96
2024/01/15 04:38:41;;;;;;;;;;;;;;;;;;;;;
2024/01/15 04:41:13;;;;;;;201.90;82.23;;;;;;;-143.21;73.34;73621.25;5141202;27;20198;-96
2024/01/15 04:43:40;;;;;;;206.63;88.97;;;;;;;-143.21;73.59;73627.22;5130693;27;20210;-96
2024/01/15 04:46:08;;;;;;;224.20;91.90;;;;;;;-143.21;73.86;73625.22;5145093;27;20235;-95
2024/01/15 04:48:36;;;;;;;213.03;91.47;;;;;;;-143.21;73.28;73621.25;5147169;27;20573;-95
2024/01/15 04:51:06;;;;;;;199.90;86.70;;;;;;;-143.21;73.47;73625.22;5148990;27;20201;-94
2024/01/15 04:53:36;;;;;;;222.17;93.27;;;;;;;-143.21;73.15;73615.31;5140942;27;20238;-94
2024/01/15 04:56:04;;;;;;;201.63;92.23;;;;;;;-143.21;73.49;73601.41;5118761;27;20193;-94
2024/01/15 05:01:17;;;;;;;215.07;91.53;;;;;;;-143.21;73.45;73601.41;5153317;27;20205;-94
2024/01/15 05:03:47;;;;;;;211.07;91.60;;;;;;;-143.21;73.45;73619.28;5144276;27;20195;-93
2024/01/15 05:06:14;;;;;;;218.83;95.43;;;;;;;-143.21;73.80;73605.38;5128505;27;20676;-94
2024/01/15 05:08:43;;;;;;;219.00;93.37;;;;;;;-143.21;73.46;73615.31;5128410;27;20246;-93
2024/01/15 05:11:10;;;;;;;216.53;90.40;;;;;;;-143.21;73.96;73617.28;5146319;27;20238;-95
2024/01/15 05:13:45;;;;;;;212.90;91.43;;;;;;;-143.21;74.37;73623.25;5140757;27;20178;-94
2024/01/15 05:16:14;;;;;;;212.30;92.53;;;;;;;-143.21;74.76;73623.25;5146824;27;20202;-96
2024/01/15 05:26:40;;;;;;;216.37;90.00;;;;;;;-143.21;74.26;73611.34;5074322;28;20209;-94
2024/01/15 05:29:07;;;;;;;203.67;87.60;;;;;;;-143.21;74.49;73621.25;5071192;28;20202;-94
2024/01/15 05:31:34;;;;;;;219.33;92.33;;;;;;;-143.21;74.33;73609.34;5071827;28;20197;-94
2024/01/15 05:34:01;;;;;;;204.57;87.77;;;;;;;-143.21;74.59;73615.31;5080286;28;20249;-94
2024/01/15 05:36:28;;;;;;;199.37;82.67;;;;;;;-143.21;74.36;73613.31;5069071;28;20208;-95
2024/01/15 05:38:55;;;;;;;201.20;84.57;;;;;;;-143.21;74.39;73611.34;5058670;28;20285;-94
2024/01/15 05:41:26;;;;;;;188.17;78.17;;;;;;;-143.21;74.43;73621.25;5066268;28;20204;-94
2024/01/15 05:43:54;;;;;;;180.57;77.80;;;;;;;-143.21;74.16;73619.28;5067695;28;20197;-95
2024/01/15 05:46:21;;;;;;;190.73;80.67;;;;;;;-143.21;73.72;73627.22;5068847;28;20685;-93
2024/01/15 05:48:54;;;;;;;183.30;78.40;;;;;;;-143.21;74.19;73625.22;5058857;28;20202;-94
2024/01/15 05:51:23;;;;;;;183.53;80.10;;;;;;;-143.21;73.88;73611.34;5069089;28;20229;-96
2024/01/15 05:53:52;;;;;;;183.50;78.07;;;;;;;-143.21;73.77;73617.28;5071106;28;20188;-94
2024/01/15 05:56:20;;;;;;;183.47;77.73;;;;;;;-143.21;73.88;73629.19;5075265;28;20227;-94
2024/01/15 05:59:05;;;;;;;175.80;74.00;;;;;;;-143.21;74.38;73637.13;5063423;28;20198;-94
2024/01/15 06:04:51;;;;;;;231.10;102.80;;;;;;;-143.21;75.46;73631.19;5141400;23;20235;-96
2024/01/15 06:07:24;;;;;;;279.73;115.00;;;;;;;-143.21;75.59;73613.31;5022698;28;20350;-95
2024/01/15 06:12:36;;;;;;;223.57;97.20;;;;;;;-143.21;75.40;73611.34;5035440;28;20250;-95
2024/01/15 06:15:06;;;;;;;245.03;108.47;;;;;;;-143.21;75.27;73613.31;5020991;28;20640;-95
2024/01/15 06:17:34;;;;;;;216.73;93.67;;;;;;;-143.21;75.37;73607.38;5007172;28;20224;-96
2024/01/15 06:22:45;;;;;;;214.10;91.17;;;;;;;-143.21;75.08;73581.59;5013584;28;20199;-94
2024/01/15 06:25:13;;;;;;;195.53;86.63;;;;;;;-143.21;74.94;73565.72;5023904;28;20207;-96
2024/01/15 06:27:40;;;;;;;202.43;86.43;;;;;;;-143.21;75.15;73569.69;5023744;28;20283;-95
2024/01/15 06:30:10;;;;;;;188.93;83.90;;;;;;;-143.21;75.14;73565.72;5019109;28;20199;-96
2024/01/15 06:32:38;;;;;;;190.30;81.67;;;;;;;-143.21;75.67;73571.66;5016417;28;20211;-95
2024/01/15 06:35:07;;;;;;;192.20;81.10;;;;;;;-143.21;75.94;73571.66;5032999;28;20223;-95
2024/01/15 06:37:37;;;;;;;181.40;81.33;;;;;;;-143.21;76.06;73557.78;5040255;28;20253;-95
2024/01/15 06:40:08;;;;;;;224.30;90.57;;;;;;;-143.21;75.61;73539.91;5017341;28;20196;-95
2024/01/15 06:42:35;;;;;;;205.63;93.10;;;;;;;-143.21;75.48;73537.94;5032497;28;20241;-94
2024/01/15 06:45:03;;;;;;;223.53;93.67;;;;;;;-143.21;75.80;73541.91;5021787;28;20195;-94
2024/01/15 06:50:17;;;;;;;136.90;61.63;;;;;;;-143.21;73.38;73518.09;5038591;28;20283;-94
2024/01/15 06:52:44;;;;;;;164.40;73.60;;;;;;;-143.21;73.33;73512.16;5016110;28;20267;-96
2024/01/15 06:55:11;;;;;;;173.83;80.00;;;;;;;-143.21;73.25;73510.16;5006491;28;20195;-93
2024/01/15 06:57:38;;;;;;;178.33;83.07;;;;;;;-143.21;73.34;73510.16;5024984;28;20237;-94
2024/01/15 07:00:08;;;;;;;193.23;86.07;;;;;;;-143.21;73.23;73514.13;5029292;28;20203;-95
2024/01/15 07:02:39;;;;;;;196.67;87.37;;;;;;;-143.21;72.54;73514.13;5034981;28;20856;-96
2024/01/15 07:05:10;;;;;;;184.87;83.93;;;;;;;-143.21;72.62;73504.22;5025048;28;20610;-94
2024/01/15 07:07:38;;;;;;;186.93;83.77;;;;;;;-143.21;72.67;73504.22;5019077;28;20294;-94
2024/01/15 07:12:43;;;;;;;185.97;84.97;;;;;;;-143.21;72.10;73482.38;5068070;23;20250;-96
2024/01/15 07:15:11;;;;;;;185.10;83.60;;;;;;;-143.21;71.97;73482.38;5062149;28;20304;-95
2024/01/15 07:17:40;;;;;;;197.40;90.57;;;;;;;-143.21;71.47;73484.38;5049853;28;20244;-96
2024/01/15 07:20:11;;;;;;;207.67;93.70;;;;;;;-143.21;71.67;73474.47;5062490;28;20294;-96
2024/01/15 07:22:39;;;;;;;202.80;88.80;;;;;;;-143.21;72.10;73480.41;5049855;28;20194;-96
2024/01/15 07:25:07;;;;;;;192.37;86.60;;;;;;;-143.21;72.25;73478.41;5058976;28;20201;-94
2024/01/15 07:27:34;;;;;;;178.27;83.30;;;;;;;-143.21;71.56;73466.53;5056789;28;20205;-96
2024/01/15 07:30:01;;;;;;;177.20;81.33;;;;;;;-143.21;71.54;73456.59;5051038;28;20203;-94
2024/01/15 07:32:33;;;;;;;180.33;80.33;;;;;;;-143.21;72.07;73458.59;5061136;28;20289;-93
2024/01/15 07:35:02;;;;;;;176.63;77.67;;;;;;;-143.21;72.27;73448.66;5036881;28;20223;-94
2024/01/15 07:37:29;;;;;;;169.40;74.57;;;;;;;-143.21;72.61;73440.72;5036898;28;20644;-94
2024/01/15 07:39:59;;;;;;;165.50;73.40;;;;;;;-143.21;72.06;73420.91;5035892;28;20263;-95
2024/01/15 07:42:29;;;;;;;153.93;70.50;;;;;;;-143.21;72.04;73424.84;5031283;28;20201;-94
2024/01/15 07:44:56;;;;;;;157.83;70.37;;;;;;;-143.21;72.02;73412.97;5036000;28;20196;-93
2024/01/15 07:47:23;;;;;;;160.67;70.40;;;;;;;-143.21;71.08;73409.00;5041870;28;20234;-95
2024/01/15 07:49:50;;;;;;;159.87;72.90;;;;;;;-143.21;71.08;73407.00;5020297;28;20291;-94
2024/01/15 07:52:20;;;;;;;151.87;66.30;;;;;;;-143.21;71.13;73393.13;5036205;28;20634;-95
2024/01/15 07:54:48;;;;;;;153.03;66.23;;;;;;;-143.21;70.58;73383.19;5035583;28;20215;-94
2024/01/15 07:57:16;;;;;;;149.67;67.13;;;;;;;-143.21;70.32;73377.25;5039611;28;20224;-94
2024/01/15 07:59:43;;;;;;;158.50;67.27;;;;;;;-143.21;70.66;73351.47;5046643;28;20677;-93
2024/01/15 08:02:09;;;;;;;146.00;65.47;;;;;;;-143.21;69.80;73321.72;5037012;28;20704;-95
2024/01/15 08:04:38;;;;;;;149.93;66.67;;;;;;;-143.21;69.89;73319.72;5025696;28;20193;-94
2024/01/15 08:07:06;;;;;;;144.10;64.40;;;;;;;-143.21;69.84;73317.75;5029102;28;20203;-92
2024/01/15 08:09:35;;;;;;;140.17;60.63;;;;;;;-143.21;69.76;73317.75;5021193;28;20344;-92
2024/01/15 08:12:02;;;;;;;129.07;56.63;;;;;;;-143.21;69.10;73315.75;5027031;28;20252;-91
2024/01/15 08:14:28;;;;;;;124.07;56.97;;;;;;;-143.21;69.49;73313.78;5031078;28;20200;-89
2024/01/15 08:16:55;;;;;;;136.20;56.37;;;;;;;-143.21;69.53;73295.91;5034276;28;20371;-91
2024/01/15 08:19:24;;;;;;;127.43;59.20;;;;;;;-143.21;69.54;73272.13;5012364;28;20234;-91
2024/01/15 08:21:51;;;;;;;134.60;60.30;;;;;;;-143.21;68.03;73266.16;5027025;28;20202;-91
2024/01/15 08:24:20;;;;;;;134.40;61.67;;;;;;;-143.21;68.24;73274.09;5032554;28;20242;-91
2024/01/15 08:26:48;;;;;;;136.57;62.80;;;;;;;-143.21;68.69;73260.22;5030682;28;20232;-93
2024/01/15 08:29:24;;;;;;;140.27;63.93;;;;;;;-143.21;68.90;73250.28;5045636;28;20198;-96
2024/01/15 08:31:54;;;;;;;141.57;65.87;;;;;;;-143.21;68.12;73232.44;5035331;28;20185;-96
2024/01/15 08:34:27;;;;;;;149.53;66.57;;;;;;;-143.21;66.88;73224.50;5042554;28;20217;-96
2024/01/15 08:36:54;;;;;;;137.63;64.30;;;;;;;-143.21;65.91;73220.53;5053807;28;20221;-94
2024/01/15 08:42:15;;;;;;;151.87;65.63;;;;;;;-143.21;65.72;73212.59;5038750;28;20209;-96
2024/01/15 08:44:43;;;;;;;138.23;62.03;;;;;;;-143.21;64.98;73204.66;5038566;28;20209;-94
2024/01/15 08:47:16;;;;;;;142.07;64.53;;;;;;;-143.21;65.07;73216.56;5043346;28;20683;-94
2024/01/15 08:49:46;;;;;;;139.23;64.10;;;;;;;-143.21;66.22;73216.56;5039679;28;20229;-94
2024/01/15 08:52:17;;;;;;;143.13;65.60;;;;;;;-143.21;65.96;73208.63;5051743;28;20225;-95
2024/01/15 08:54:45;;;;;;;147.97;65.93;;;;;;;-143.21;66.06;73192.75;5040025;28;20198;-94
2024/01/15 08:57:27;;;;;;;142.33;65.67;;;;;;;-143.21;66.30;73180.88;5047626;28;20205;-95
2024/01/15 09:00:00;;;;;;;155.93;68.20;;;;;;;-143.21;65.99;73157.06;5037537;28;20202;-93
2024/01/15 09:02:31;;;;;;;139.37;65.57;;;;;;;-143.21;64.70;73143.16;5046107;28;20339;-93
2024/01/15 09:20:20;;;;;;;138.23;59.30;;;;;;;-143.21;64.81;73077.72;4883493;23;20269;-94
2024/01/15 09:41:28;;;;;;;133.03;59.17;;;;;;;-143.21;63.55;73010.28;5274885;23;20231;-94
2024/01/15 09:43:56;;;;;;;133.43;63.07;;;;;;;-143.21;62.67;72986.47;5041010;28;20594;-93
2024/01/15 09:46:29;;;;;;;135.00;64.90;;;;;;;-143.21;63.03;72976.56;5039327;28;20222;-96
2024/01/15 09:48:56;;;;;;;130.60;63.80;;;;;;;-143.21;62.97;72952.75;5035170;28;20190;-91
2024/01/15 09:51:23;;;;;;;136.13;62.27;;;;;;;-143.21;61.91;72946.81;5033588;28;20214;-92
2024/01/15 09:53:50;;;;;;;136.67;63.67;;;;;;;-143.21;61.81;72928.94;5013992;28;20226;-92
2024/01/15 09:56:18;;;;;;;126.30;61.93;;;;;;;-143.21;60.43;72915.06;5036761;28;20213;-93
2024/01/15 09:59:02;;;;;;;153.53;67.00;;;;;;;-143.21;60.57;72905.16;5017215;28;20241;-92
2024/01/15 10:01:33;;;;;;;156.50;70.87;;;;;;;-143.21;60.26;72897.22;5034821;28;20202;-93
2024/01/15 10:04:00;;;;;;;146.90;71.00;;;;;;;-143.21;60.78;72883.31;5033242;28;20641;-92
2024/01/15 10:06:28;;;;;;;165.50;75.50;;;;;;;-143.21;60.57;72829.78;5026329;28;20641;-92
2024/01/15 10:08:59;;;;;;;153.23;74.00;;;;;;;-143.21;58.84;72685.00;5034706;28;20669;-93
2024/01/15 10:11:26;;;;;;;147.30;72.57;;;;;;;-143.21;52.89;72498.56;5044041;28;20217;-93
2024/01/15 10:13:58;;;;;;;150.90;69.63;;;;;;;-143.21;46.27;72296.28;5030523;28;20200;-93
2024/01/15 10:19:19;;;;;;;112.77;55.03;;;;;;;-143.21;38.87;71893.72;5030794;28;20226;-92
2024/01/15 10:21:57;;;;;;;;;;;;;;;;;;;;;
2024/01/15 10:24:30;;;;;;;87.53;48.27;;;;;;;-143.21;34.57;71626.03;5038207;28;20659;-94
2024/01/15 10:27:07;;;;;;;93.27;49.37;;;;;;;-143.21;33.75;71572.50;5049684;28;20185;-92
2024/01/15 10:29:36;;;;;;;96.83;48.77;;;;;;;-143.21;32.10;71467.41;5044439;28;20207;-95
2024/01/15 10:32:08;;;;;;;95.53;49.90;;;;;;;-143.21;32.36;71407.94;5044690;28;20218;-94
2024/01/15 10:34:38;;;;;;;76.30;42.50;;;;;;;-143.21;31.77;71437.69;5035585;28;20233;-94
2024/01/15 10:37:05;;;;;;;70.77;40.53;;;;;;;-143.21;31.20;71489.22;5034590;28;20194;-94
2024/01/15 10:39:35;;;;;;;73.00;39.83;;;;;;;-143.21;32.35;71556.63;5031572;28;20223;-94
2024/01/15 10:42:03;;;;;;;65.17;33.70;;;;;;;-143.21;32.88;71590.34;5032827;28;20195;-92
2024/01/15 10:44:31;;;;;;;59.40;34.27;;;;;;;-143.21;32.41;71568.53;5033188;28;20264;-93
2024/01/15 10:46:59;;;;;;;66.20;34.73;;;;;;;-143.21;32.32;71546.72;5036353;28;20195;-93
2024/01/15 10:49:38;;;;;;;65.93;33.87;;;;;;;-143.21;32.33;71544.75;5022653;28;20235;-95
2024/01/15 10:52:06;;;;;;;56.70;31.20;;;;;;;-143.21;32.43;71574.47;5038252;28;20195;-96
2024/01/15 10:54:34;;;;;;;50.13;27.80;;;;;;;-143.21;32.69;71653.78;5036041;28;20579;-96
2024/01/15 10:57:02;;;;;;;53.77;27.27;;;;;;;-143.21;33.33;71760.88;5032867;28;20233;-95
2024/01/15 11:02:10;;;;;;;50.67;23.43;;;;;;;-143.21;35.16;71873.88;5032945;28;20199;-93
2024/01/15 11:04:39;;;;;;;41.53;22.77;;;;;;;-143.21;35.34;71881.81;5026696;28;20258;-92
2024/01/15 11:07:08;;;;;;;42.90;22.87;;;;;;;-143.21;35.30;71865.97;5035047;28;20209;-93
2024/01/15 11:09:37;;;;;;;48.30;24.53;;;;;;;-143.21;35.22;71850.09;5016371;28;20194;-93
2024/01/15 11:12:25;;;;;;;50.03;25.57;;;;;;;-143.21;35.73;71858.03;5036542;28;20209;-93
2024/01/15 11:14:54;;;;;;;55.53;27.60;;;;;;;-143.21;35.73;71865.97;5041503;28;20266;-94
2024/01/15 11:17:22;;;;;;;55.83;30.30;;;;;;;-143.21;36.10;71881.81;5047544;28;20202;-93
2024/01/15 11:19:51;;;;;;;60.63;30.77;;;;;;;-143.21;36.40;71871.91;5046345;28;20234;-94
2024/01/15 11:22:59;;;;;;;55.67;30.20;;;;;;;-143.21;35.76;71824.31;5039763;28;20194;-93
2024/01/15 11:25:37;;;;;;;59.60;31.73;;;;;;;-143.21;35.40;71794.56;5025217;28;20201;-93
2024/01/15 11:28:05;;;;;;;60.53;32.63;;;;;;;-143.21;35.58;71804.47;5034367;28;20249;-93
2024/01/15 11:30:37;;;;;;;61.00;31.63;;;;;;;-143.21;36.05;71830.25;5047903;28;20281;-95
2024/01/15 11:33:07;;;;;;;55.13;29.03;;;;;;;-143.21;35.87;71865.97;5046342;28;20214;-94
2024/01/15 11:35:53;;;;;;;55.50;28.67;;;;;;;-143.21;36.74;71907.59;5034162;28;20190;-94
2024/01/15 11:41:26;;;;;;;54.20;28.97;;;;;;;-143.21;38.32;72042.44;5011991;28;20226;-94
2024/01/15 11:43:53;;;;;;;57.83;29.77;;;;;;;-143.21;38.58;72084.06;5032210;28;20211;-94
2024/01/15 11:46:21;;;;;;;60.30;30.53;;;;;;;-143.21;39.44;72131.69;5034784;28;20213;-95
2024/01/15 11:48:58;;;;;;;55.13;29.17;;;;;;;-143.21;39.83;72165.38;5032269;28;20209;-94
2024/01/15 11:51:29;;;;;;;59.23;30.03;;;;;;;-143.21;40.38;72189.19;5035613;28;20202;-95
2024/01/15 11:54:03;;;;;;;55.57;29.63;;;;;;;-143.21;40.81;72209.00;5034274;28;20268;-94
2024/01/15 11:56:32;;;;;;;55.57;29.30;;;;;;;-143.21;41.02;72236.78;5027927;28;20279;-94
2024/01/15 11:59:00;;;;;;;58.90;28.90;;;;;;;-143.21;41.93;72268.50;5034277;28;20222;-94
2024/01/15 12:01:28;;;;;;;50.17;26.57;;;;;;;-143.21;42.67;72278.41;5042713;28;20217;-93
2024/01/15 12:03:55;;;;;;;52.73;25.03;;;;;;;-143.21;42.86;72298.25;5043145;28;20234;-93
2024/01/15 12:06:23;;;;;;;55.07;26.57;;;;;;;-143.21;43.22;72306.19;5043625;28;20248;-93
2024/01/15 12:08:51;;;;;;;55.97;26.70;;;;;;;-143.21;43.85;72318.09;5036438;28;20286;-94
2024/01/15 12:11:23;;;;;;;63.20;27.30;;;;;;;-143.21;44.22;72318.09;5034209;28;20240;-94
2024/01/15 12:13:53;;;;;;;49.50;25.73;;;;;;;-143.21;44.54;72308.16;5028970;28;20203;-94
2024/01/15 12:16:20;;;;;;;50.33;26.10;;;;;;;-143.21;44.73;72329.97;5045418;28;20271;-94
2024/01/15 12:18:58;;;;;;;56.77;25.10;;;;;;;-143.21;45.53;72339.91;5041655;28;20237;-95
2024/01/15 12:21:28;;;;;;;47.93;26.03;;;;;;;-143.21;45.53;72335.94;5020551;28;20202;-93
2024/01/15 12:23:57;;;;;;;58.10;28.10;;;;;;;-143.21;45.69;72341.88;5031348;28;20253;-93
2024/01/15 12:26:24;;;;;;;56.30;27.83;;;;;;;-143.21;45.77;72343.88;5029184;28;20210;-93
2024/01/15 12:28:53;;;;;;;64.93;29.30;;;;;;;-143.21;46.26;72353.78;5021091;28;20679;-94
2024/01/15 12:31:21;;;;;;;50.77;26.60;;;;;;;-143.21;46.22;72359.72;5032388;28;20233;-94
2024/01/15 12:33:48;;;;;;;51.07;26.47;;;;;;;-143.21;46.00;72357.75;5035181;28;20207;-92
2024/01/15 12:36:15;;;;;;;44.53;24.83;;;;;;;-143.21;46.71;72347.84;5038920;28;20218;-94
2024/01/15 12:38:42;;;;;;;46.70;25.73;;;;;;;-143.21;46.53;72349.81;5029309;28;20223;-93
2024/01/15 12:41:11;;;;;;;46.30;24.13;;;;;;;-143.21;46.34;72351.78;5023841;28;20264;-92
2024/01/15 12:43:38;;;;;;;52.47;25.70;;;;;;;-143.21;46.46;72343.88;5035110;28;20285;-95
2024/01/15 12:46:05;;;;;;;51.83;24.63;;;;;;;-143.21;46.89;72351.78;5032676;28;20209;-93
2024/01/15 12:48:32;;;;;;;62.77;25.50;;;;;;;-143.21;46.74;72349.81;5031673;28;20191;-94